Time;durP1;ratioP1;P1;durP2;ratioP2;P2;SDS_P1;SDS_P2;PMS_P1;PMS_P2;Temp;Humidity;BMP_temperature;BMP_pressure;BME280_temperature;BME280_humidity;BME280_pressure;Samples;Min_cycle;Max_cycle;Signal;HPM_P1;HPM_P2
2023/12/12 00:01:47;;;;;;;2.13;1.60;;;;;;;7.51;100.00;153287.97;5066619;28;21017;-74
2023/12/12 00:04:15;;;;;;;3.10;2.07;;;;;;;7.49;100.00;153284.13;5068325;28;20467;-74
2023/12/12 00:06:42;;;;;;;4.07;1.80;;;;;;;7.45;100.00;153272.47;5066531;28;20496;-74
2023/12/12 00:09:10;;;;;;;3.20;1.93;;;;;;;7.44;100.00;153269.91;5048925;28;20495;-74
2023/12/12 00:11:36;;;;;;;3.80;1.83;;;;;;;7.43;100.00;153267.31;5052178;28;20473;-74
2023/12/12 00:14:03;;;;;;;5.80;2.10;;;;;;;7.41;100.00;153262.16;5037717;28;20532;-74
2023/12/12 00:16:29;;;;;;;3.40;2.43;;;;;;;7.42;100.00;153264.69;5069398;28;20507;-74
2023/12/12 00:18:56;;;;;;;4.47;2.00;;;;;;;7.40;100.00;153259.53;5052252;28;20462;-74
2023/12/12 00:21:22;;;;;;;4.17;1.97;;;;;;;7.43;100.00;153267.31;5050307;28;20426;-75
2023/12/12 00:23:49;;;;;;;3.20;2.10;;;;;;;7.44;100.00;153271.16;5068586;28;20450;-74
2023/12/12 00:26:17;;;;;;;2.10;1.50;;;;;;;7.42;100.00;153266.00;5044127;28;20457;-74
2023/12/12 00:28:43;;;;;;;3.00;1.90;;;;;;;7.39;100.00;153257.00;5064511;28;20453;-74
2023/12/12 00:31:10;;;;;;;5.73;1.63;;;;;;;7.40;100.00;153259.53;5051995;28;20960;-74
2023/12/12 00:33:37;;;;;;;5.20;2.53;;;;;;;7.38;100.00;153254.41;5054724;28;20533;-74
2023/12/12 00:36:04;;;;;;;5.33;2.00;;;;;;;7.40;100.00;153260.84;5048448;28;20447;-74
2023/12/12 00:38:30;;;;;;;5.03;1.90;;;;;;;7.44;100.00;153269.91;5053320;28;20458;-74
2023/12/12 00:40:58;;;;;;;3.00;1.63;;;;;;;7.47;100.00;153278.91;5051085;28;20454;-74
2023/12/12 00:43:26;;;;;;;2.50;1.60;;;;;;;7.48;100.00;153281.50;5053876;28;20445;-74
2023/12/12 00:45:52;;;;;;;4.10;1.83;;;;;;;7.50;100.00;153285.38;5059717;28;20449;-75
2023/12/12 00:48:19;;;;;;;3.63;1.63;;;;;;;7.44;100.00;153269.91;5070634;28;20494;-75
2023/12/12 00:50:46;;;;;;;3.10;1.80;;;;;;;7.44;100.00;153269.91;5075358;28;20480;-75
2023/12/12 00:53:12;;;;;;;2.60;1.70;;;;;;;7.46;100.00;153275.06;5032916;28;20864;-74
2023/12/12 00:55:39;;;;;;;2.83;1.60;;;;;;;7.46;100.00;153276.34;5052605;28;20533;-74
2023/12/12 00:58:06;;;;;;;2.80;1.90;;;;;;;7.43;100.00;153267.31;5061900;28;20919;-74
2023/12/12 01:00:34;;;;;;;5.70;2.20;;;;;;;7.42;100.00;153264.69;5037188;28;20441;-74
2023/12/12 01:03:00;;;;;;;2.57;1.80;;;;;;;7.43;100.00;153267.31;5035704;28;20457;-75
2023/12/12 01:05:27;;;;;;;3.17;2.10;;;;;;;7.41;100.00;153262.16;5071780;28;20465;-74
2023/12/12 01:07:53;;;;;;;4.37;2.20;;;;;;;7.37;100.00;153253.09;5050729;28;20465;-74
2023/12/12 01:10:21;;;;;;;3.40;2.10;;;;;;;7.40;100.00;153259.53;5058714;28;20953;-74
2023/12/12 01:12:47;;;;;;;5.30;2.50;;;;;;;7.38;100.00;153255.69;5041439;28;20576;-75
2023/12/12 01:15:14;;;;;;;5.03;2.70;;;;;;;7.37;100.00;153253.09;5055204;28;20825;-74
2023/12/12 01:17:41;;;;;;;3.73;2.27;;;;;;;7.36;100.00;153250.50;5067348;28;20460;-74
2023/12/12 01:20:09;;;;;;;3.80;1.93;;;;;;;7.38;100.00;153254.41;5034351;28;21011;-74
2023/12/12 01:22:35;;;;;;;4.20;2.20;;;;;;;7.39;100.00;153257.00;5048616;28;20435;-74
2023/12/12 01:25:03;;;;;;;3.30;2.07;;;;;;;7.42;100.00;153266.00;5049574;28;20828;-74
2023/12/12 01:27:30;;;;;;;3.40;1.50;;;;;;;7.44;100.00;153271.16;5052528;28;20461;-74
2023/12/12 01:29:56;;;;;;;2.83;1.60;;;;;;;7.46;100.00;153276.34;5052969;28;20445;-74
2023/12/12 01:32:23;;;;;;;3.10;1.93;;;;;;;7.48;100.00;153280.22;5052204;28;21017;-74
2023/12/12 01:34:51;;;;;;;2.60;1.67;;;;;;;7.49;100.00;153282.81;5044408;28;20447;-74
2023/12/12 01:37:17;;;;;;;3.47;1.80;;;;;;;7.51;100.00;153287.97;5052166;28;20449;-74
2023/12/12 01:39:44;;;;;;;7.03;1.97;;;;;;;7.53;100.00;153294.44;5070978;28;20442;-75
2023/12/12 01:42:10;;;;;;;2.93;1.53;;;;;;;7.55;100.00;153298.28;5067918;28;20476;-74
2023/12/12 01:44:37;;;;;;;3.70;1.57;;;;;;;7.55;100.00;153298.28;5045475;28;20454;-74
2023/12/12 01:47:04;;;;;;;2.97;1.80;;;;;;;7.55;100.00;153298.28;5048844;28;20583;-74
2023/12/12 01:49:31;;;;;;;3.37;2.43;;;;;;;7.56;100.00;153302.19;5049549;28;20455;-74
2023/12/12 01:51:59;;;;;;;3.23;2.00;;;;;;;7.58;100.00;153306.03;5059514;28;20467;-74
2023/12/12 01:54:26;;;;;;;2.50;1.90;;;;;;;7.61;100.00;153315.09;5046726;28;20457;-74
2023/12/12 01:56:54;;;;;;;1.83;1.47;;;;;;;7.60;100.00;153312.50;5047889;28;21010;-74
2023/12/12 01:59:22;;;;;;;3.37;1.70;;;;;;;7.61;100.00;153315.09;5070434;28;20446;-74
2023/12/12 02:01:49;;;;;;;2.57;1.90;;;;;;;7.60;100.00;153311.25;5049739;28;20528;-74
2023/12/12 02:04:17;;;;;;;3.20;1.93;;;;;;;7.58;100.00;153306.03;5049575;28;20866;-74
2023/12/12 02:06:44;;;;;;;3.13;2.20;;;;;;;7.55;100.00;153298.28;5065020;28;20446;-74
2023/12/12 02:09:12;;;;;;;3.57;2.00;;;;;;;7.52;100.00;153290.56;5049879;28;20450;-74
2023/12/12 02:11:39;;;;;;;2.60;1.73;;;;;;;7.51;100.00;153287.97;5067645;28;20474;-74
2023/12/12 02:14:06;;;;;;;3.10;1.93;;;;;;;7.52;100.00;153290.56;5045198;28;20457;-74
2023/12/12 02:16:32;;;;;;;2.67;1.63;;;;;;;7.49;100.00;153284.13;5061085;28;20802;-74
2023/12/12 02:18:59;;;;;;;3.97;2.00;;;;;;;7.44;100.00;153271.16;5059021;28;20927;-75
2023/12/12 02:21:27;;;;;;;2.30;1.70;;;;;;;7.43;100.00;153267.31;5044760;28;20447;-74
2023/12/12 02:23:53;;;;;;;2.20;1.90;;;;;;;7.44;100.00;153269.91;5038590;28;20446;-74
2023/12/12 02:26:20;;;;;;;2.30;1.40;;;;;;;7.42;100.00;153264.69;5068170;28;20453;-74
2023/12/12 02:28:46;;;;;;;2.67;1.93;;;;;;;7.39;100.00;153257.00;5035345;28;20457;-75
2023/12/12 02:31:14;;;;;;;3.03;2.00;;;;;;;7.33;100.00;153244.03;5049576;28;20496;-74
2023/12/12 02:33:40;;;;;;;4.53;1.83;;;;;;;7.29;100.00;153233.72;5065853;28;20453;-74
2023/12/12 02:36:07;;;;;;;4.17;1.97;;;;;;;7.28;100.00;153231.13;5050813;28;20504;-74
2023/12/12 02:38:35;;;;;;;2.43;1.60;;;;;;;7.25;100.00;153223.38;5046956;28;20454;-74
2023/12/12 02:41:02;;;;;;;2.67;1.60;;;;;;;7.22;100.00;153215.66;5025046;28;20494;-75
2023/12/12 02:43:29;;;;;;;2.00;1.40;;;;;;;7.18;100.00;153205.31;5046708;28;20472;-74
2023/12/12 02:45:55;;;;;;;4.23;1.70;;;;;;;7.14;100.00;153195.00;5051087;28;20441;-74
2023/12/12 02:48:22;;;;;;;3.50;1.80;;;;;;;7.16;100.00;153200.16;5035053;28;20466;-74
2023/12/12 02:50:48;;;;;;;2.20;1.80;;;;;;;7.17;100.00;153201.47;5062529;28;20839;-74
2023/12/12 02:53:15;;;;;;;2.13;1.30;;;;;;;7.14;100.00;153195.00;5034453;28;20557;-74
2023/12/12 02:55:43;;;;;;;2.33;1.50;;;;;;;7.14;100.00;153195.00;5048377;28;20462;-74
2023/12/12 02:58:09;;;;;;;2.77;2.07;;;;;;;7.11;100.00;153185.94;5040130;28;20441;-74
2023/12/12 03:00:36;;;;;;;2.97;2.00;;;;;;;7.09;100.00;153180.81;5067884;28;20472;-74
2023/12/12 03:03:02;;;;;;;2.47;1.50;;;;;;;7.08;100.00;153178.19;5053218;28;20456;-74
2023/12/12 03:05:29;;;;;;;5.10;2.00;;;;;;;7.05;100.00;153171.75;5050168;28;20470;-74
2023/12/12 03:07:55;;;;;;;2.20;1.70;;;;;;;7.06;100.00;153174.34;5046952;28;20454;-74
2023/12/12 03:10:22;;;;;;;3.83;2.50;;;;;;;7.05;100.00;153170.44;5052129;28;21288;-74
2023/12/12 03:12:50;;;;;;;4.20;1.63;;;;;;;7.05;100.00;153170.44;5046045;28;20481;-74
2023/12/12 03:15:16;;;;;;;2.53;1.77;;;;;;;7.06;100.00;153174.34;5039131;28;20539;-74
2023/12/12 03:17:43;;;;;;;3.43;1.60;;;;;;;7.07;100.00;153175.66;5046010;28;20799;-74
2023/12/12 03:20:10;;;;;;;2.00;1.30;;;;;;;7.05;100.00;153171.75;5050643;28;20989;-74
2023/12/12 03:22:37;;;;;;;3.37;1.60;;;;;;;7.03;100.00;153166.59;5040920;28;20512;-74
2023/12/12 03:25:04;;;;;;;2.23;1.27;;;;;;;7.05;100.00;153171.75;5032113;28;20442;-74
2023/12/12 03:27:31;;;;;;;1.73;1.27;;;;;;;7.01;100.00;153161.44;5056937;28;20529;-74
2023/12/12 03:29:58;;;;;;;3.63;1.37;;;;;;;6.99;100.00;153156.25;5049157;28;20458;-74
2023/12/12 03:32:25;;;;;;;2.20;1.53;;;;;;;7.01;100.00;153161.44;5034074;28;20458;-74
2023/12/12 03:34:52;;;;;;;2.10;1.20;;;;;;;7.03;100.00;153165.28;5048744;28;20454;-75
2023/12/12 03:37:18;;;;;;;2.03;1.27;;;;;;;7.03;100.00;153166.59;5028876;28;20905;-75
2023/12/12 03:39:45;;;;;;;3.63;1.33;;;;;;;7.07;100.00;153175.66;5049997;28;21105;-75
2023/12/12 03:42:11;;;;;;;2.70;1.50;;;;;;;7.10;100.00;153183.34;5047541;28;20434;-75
2023/12/12 03:44:38;;;;;;;2.83;1.60;;;;;;;7.10;100.00;153183.34;5045011;28;20445;-75
2023/12/12 03:47:06;;;;;;;3.87;1.50;;;;;;;7.10;100.00;153183.34;5065326;28;20492;-74
2023/12/12 03:49:32;;;;;;;1.70;1.17;;;;;;;7.12;100.00;153188.56;5052312;28;20454;-74
2023/12/12 03:51:59;;;;;;;2.67;1.60;;;;;;;7.14;100.00;153193.72;5045452;28;20910;-74
2023/12/12 03:54:25;;;;;;;1.60;1.27;;;;;;;7.16;100.00;153198.84;5059753;28;20458;-74
2023/12/12 03:56:52;;;;;;;2.87;1.50;;;;;;;7.16;100.00;153200.16;5049084;28;20544;-74
2023/12/12 03:59:18;;;;;;;2.67;1.40;;;;;;;7.16;100.00;153198.84;5055818;28;20449;-74
2023/12/12 04:01:48;;;;;;;1.70;1.20;;;;;;;7.14;100.00;153195.00;5042064;28;20466;-74
2023/12/12 04:04:17;;;;;;;2.20;1.37;;;;;;;7.13;100.00;153192.41;5048127;28;20529;-74
2023/12/12 04:06:45;;;;;;;3.30;1.90;;;;;;;7.12;100.00;153188.56;5047754;28;20441;-74
2023/12/12 04:09:11;;;;;;;3.63;1.43;;;;;;;7.10;100.00;153184.66;5052662;28;20453;-74
2023/12/12 04:11:38;;;;;;;1.53;1.23;;;;;;;7.08;100.00;153179.50;5056633;28;20462;-74
2023/12/12 04:14:04;;;;;;;1.80;1.30;;;;;;;7.02;100.00;153164.00;5045165;28;20828;-74
2023/12/12 04:16:31;;;;;;;1.83;1.30;;;;;;;6.99;100.00;153156.25;5045640;28;20461;-74
2023/12/12 04:18:57;;;;;;;1.60;1.20;;;;;;;6.96;100.00;153148.53;5050123;28;20822;-74
2023/12/12 04:21:25;;;;;;;2.37;1.47;;;;;;;6.92;100.00;153138.19;5061399;28;20905;-74
2023/12/12 04:23:52;;;;;;;3.13;1.40;;;;;;;6.88;100.00;153126.59;5037130;28;20446;-74
2023/12/12 04:26:18;;;;;;;4.00;1.47;;;;;;;6.82;100.00;153112.38;5072852;28;20943;-74
2023/12/12 04:28:45;;;;;;;2.87;1.70;;;;;;;6.81;100.00;153109.78;5068312;28;20464;-74
2023/12/12 04:31:14;;;;;;;1.93;1.00;;;;;;;6.78;100.00;153102.03;5051239;28;20511;-74
2023/12/12 04:33:41;;;;;;;3.43;1.40;;;;;;;6.77;100.00;153099.47;5050246;28;20504;-74
2023/12/12 04:36:08;;;;;;;2.00;1.50;;;;;;;6.73;100.00;153090.41;5032553;28;20477;-74
2023/12/12 04:38:36;;;;;;;2.27;1.60;;;;;;;6.71;100.00;153083.97;5047398;28;20459;-74
2023/12/12 04:41:04;;;;;;;3.57;1.97;;;;;;;6.69;100.00;153078.81;5054260;28;20442;-74
2023/12/12 04:43:30;;;;;;;1.50;1.20;;;;;;;6.67;100.00;153074.91;5079133;28;20480;-74
2023/12/12 04:45:57;;;;;;;2.00;1.57;;;;;;;6.68;100.00;153076.22;5037000;28;20461;-74
2023/12/12 04:48:24;;;;;;;1.60;1.23;;;;;;;6.66;100.00;153071.06;5043845;28;20476;-74
2023/12/12 04:50:50;;;;;;;2.33;1.40;;;;;;;6.60;100.00;153056.88;5057792;28;20458;-74
2023/12/12 04:53:17;;;;;;;2.23;1.57;;;;;;;6.56;100.00;153046.56;5057397;28;20482;-74
2023/12/12 04:55:45;;;;;;;1.70;1.20;;;;;;;6.56;100.00;153045.25;5048937;28;20474;-74
2023/12/12 04:58:12;;;;;;;2.10;1.60;;;;;;;6.52;100.00;153034.91;5046901;28;20507;-74
2023/12/12 05:00:38;;;;;;;3.53;1.33;;;;;;;6.55;100.00;153042.66;5048320;28;20896;-74
2023/12/12 05:03:05;;;;;;;3.10;1.87;;;;;;;6.55;100.00;153043.97;5051173;28;20458;-74
2023/12/12 05:05:31;;;;;;;1.80;1.20;;;;;;;6.57;100.00;153049.13;5061466;28;20494;-74
2023/12/12 05:07:58;;;;;;;3.20;1.70;;;;;;;6.56;100.00;153046.56;5052617;28;20536;-74
2023/12/12 05:10:24;;;;;;;2.53;1.50;;;;;;;6.56;100.00;153046.56;5044324;28;20463;-74
2023/12/12 05:12:52;;;;;;;3.10;1.30;;;;;;;6.59;100.00;153053.00;5051065;28;20470;-74
2023/12/12 05:15:18;;;;;;;2.43;1.53;;;;;;;6.58;100.00;153051.72;5067147;28;20477;-74
2023/12/12 05:17:45;;;;;;;3.67;2.10;;;;;;;6.60;100.00;153056.88;5032876;28;20443;-74
2023/12/12 05:20:13;;;;;;;2.30;1.60;;;;;;;6.61;100.00;153058.16;5046569;28;20458;-74
2023/12/12 05:22:40;;;;;;;3.27;2.10;;;;;;;6.62;100.00;153062.03;5066184;28;20986;-74
2023/12/12 05:25:07;;;;;;;3.07;1.50;;;;;;;6.63;100.00;153064.63;5033674;28;20786;-74
2023/12/12 05:27:34;;;;;;;2.13;1.33;;;;;;;6.62;100.00;153062.03;5052827;28;20485;-74
2023/12/12 05:30:02;;;;;;;2.10;1.40;;;;;;;6.62;100.00;153062.03;5049896;28;21005;-74
2023/12/12 05:32:29;;;;;;;2.70;1.63;;;;;;;6.66;100.00;153071.06;5067972;28;20470;-74
2023/12/12 05:34:56;;;;;;;2.83;1.77;;;;;;;6.65;100.00;153068.47;5070950;28;20450;-74
2023/12/12 05:37:22;;;;;;;2.03;1.43;;;;;;;6.69;100.00;153078.81;5052918;28;20438;-74
2023/12/12 05:39:49;;;;;;;3.83;1.60;;;;;;;6.72;100.00;153086.56;5048336;28;20480;-82
2023/12/12 05:42:16;;;;;;;3.93;2.13;;;;;;;6.71;100.00;153085.28;5052906;28;20446;-82
2023/12/12 05:44:42;;;;;;;3.50;1.47;;;;;;;6.70;100.00;153082.66;5069588;28;20936;-83
2023/12/12 05:47:10;;;;;;;3.40;1.47;;;;;;;6.71;100.00;153083.97;5048699;28;20530;-83
2023/12/12 05:49:37;;;;;;;2.80;1.73;;;;;;;6.72;100.00;153086.56;5064213;28;20461;-82
2023/12/12 05:52:05;;;;;;;3.10;2.03;;;;;;;6.73;100.00;153090.41;5038282;28;20847;-83
2023/12/12 05:54:31;;;;;;;2.57;1.70;;;;;;;6.71;100.00;153085.28;5032579;28;20457;-83
2023/12/12 05:56:59;;;;;;;3.77;1.83;;;;;;;6.73;100.00;153090.41;5051218;28;20459;-83
2023/12/12 05:59:25;;;;;;;1.90;1.40;;;;;;;6.73;100.00;153089.13;5068333;28;21002;-82
2023/12/12 06:01:52;;;;;;;2.50;1.23;;;;;;;6.74;100.00;153093.03;5064992;28;20453;-82
2023/12/12 06:04:20;;;;;;;1.60;1.20;;;;;;;6.76;100.00;153096.88;5044025;28;20507;-82
2023/12/12 06:06:46;;;;;;;3.10;1.77;;;;;;;6.77;100.00;153098.19;5041333;28;20466;-83
2023/12/12 06:09:13;;;;;;;2.33;1.60;;;;;;;6.74;100.00;153091.72;5044367;28;20488;-82
2023/12/12 06:11:41;;;;;;;2.23;1.90;;;;;;;6.77;100.00;153098.19;5060497;28;20801;-82
2023/12/12 06:14:07;;;;;;;3.37;2.57;;;;;;;6.78;100.00;153102.03;5060848;28;20476;-82
2023/12/12 06:16:35;;;;;;;4.10;3.13;;;;;;;6.78;100.00;153102.03;5039822;28;20845;-82
2023/12/12 06:19:04;;;;;;;3.20;2.00;;;;;;;6.79;100.00;153103.31;5059533;28;20534;-83
2023/12/12 06:21:33;;;;;;;3.40;2.40;;;;;;;6.80;100.00;153107.22;5054064;28;20459;-83
2023/12/12 06:24:00;;;;;;;3.90;3.03;;;;;;;6.78;100.00;153102.03;5068959;28;20468;-83
2023/12/12 06:26:27;;;;;;;4.67;3.00;;;;;;;6.80;100.00;153105.91;5038395;28;20959;-83
2023/12/12 06:28:54;;;;;;;3.33;2.30;;;;;;;6.82;100.00;153111.06;5056526;28;20503;-83
2023/12/12 06:31:21;;;;;;;4.00;1.90;;;;;;;6.82;100.00;153111.06;5060627;28;20615;-83
2023/12/12 06:33:48;;;;;;;2.90;2.30;;;;;;;6.79;100.00;153104.63;5058680;28;20466;-83
2023/12/12 06:36:14;;;;;;;3.03;2.57;;;;;;;6.82;100.00;153111.06;5062385;28;20457;-83
2023/12/12 06:38:43;;;;;;;3.47;2.20;;;;;;;6.82;100.00;153112.38;5059380;28;20459;-83
2023/12/12 06:41:10;;;;;;;2.50;2.00;;;;;;;6.83;100.00;153114.94;5065051;28;20465;-83
2023/12/12 06:43:37;;;;;;;3.70;1.83;;;;;;;6.85;100.00;153118.81;5057681;28;20529;-81
2023/12/12 06:46:03;;;;;;;5.17;2.37;;;;;;;6.86;100.00;153122.69;5041814;28;20459;-83
2023/12/12 06:48:30;;;;;;;4.93;1.93;;;;;;;6.86;100.00;153122.69;5057131;28;20481;-84
2023/12/12 06:50:57;;;;;;;2.20;1.83;;;;;;;6.89;100.00;153129.13;5037925;28;20465;-83
2023/12/12 06:53:23;;;;;;;2.73;1.90;;;;;;;6.88;100.00;153127.88;5054736;28;20975;-83
2023/12/12 06:55:51;;;;;;;4.07;1.70;;;;;;;6.90;100.00;153133.03;5038472;28;20462;-83
2023/12/12 06:58:18;;;;;;;2.87;1.80;;;;;;;6.90;100.00;153133.03;5055849;28;20853;-83
2023/12/12 07:00:44;;;;;;;4.13;2.83;;;;;;;6.91;100.00;153134.34;5053873;28;20501;-84
2023/12/12 07:03:11;;;;;;;3.60;2.83;;;;;;;6.92;100.00;153136.88;5057096;28;20493;-83
2023/12/12 07:05:37;;;;;;;3.33;2.70;;;;;;;6.93;100.00;153139.47;5058272;28;20457;-83
2023/12/12 07:08:04;;;;;;;5.20;2.30;;;;;;;6.94;100.00;153142.03;5045808;28;20443;-83
2023/12/12 07:10:31;;;;;;;3.63;2.30;;;;;;;6.97;100.00;153151.09;5035762;28;20522;-83
2023/12/12 07:12:59;;;;;;;3.13;2.20;;;;;;;6.98;100.00;153153.69;5055992;28;20994;-83
2023/12/12 07:15:27;;;;;;;3.67;1.97;;;;;;;6.99;100.00;153156.25;5039704;28;20454;-84
2023/12/12 07:17:54;;;;;;;3.30;2.20;;;;;;;7.01;100.00;153160.13;5038150;28;20458;-83
2023/12/12 07:20:21;;;;;;;2.23;1.63;;;;;;;7.01;100.00;153161.44;5037414;28;21387;-84
2023/12/12 07:22:47;;;;;;;2.70;1.87;;;;;;;7.02;100.00;153162.69;5057196;28;20536;-83
2023/12/12 07:25:14;;;;;;;3.43;2.33;;;;;;;7.04;100.00;153169.16;5057914;28;20881;-83
2023/12/12 07:27:40;;;;;;;2.50;2.30;;;;;;;7.05;100.00;153171.75;5055824;28;20712;-83
2023/12/12 07:30:10;;;;;;;3.97;2.60;;;;;;;7.08;100.00;153178.19;5038222;28;20454;-84
2023/12/12 07:32:37;;;;;;;3.80;2.30;;;;;;;7.05;100.00;153171.75;5057387;28;20454;-83
2023/12/12 07:35:05;;;;;;;2.40;1.67;;;;;;;7.07;100.00;153175.66;5056719;28;20527;-83
2023/12/12 07:37:31;;;;;;;3.30;1.87;;;;;;;7.06;100.00;153174.34;5047644;28;20546;-83
2023/12/12 07:39:58;;;;;;;3.07;2.10;;;;;;;7.08;100.00;153178.19;5060158;28;20454;-84
2023/12/12 07:42:24;;;;;;;3.27;1.90;;;;;;;7.09;100.00;153182.09;5029028;28;20455;-84
2023/12/12 07:44:51;;;;;;;3.73;2.17;;;;;;;7.07;100.00;153176.91;5055114;28;20504;-84
2023/12/12 07:47:19;;;;;;;1.90;1.40;;;;;;;7.08;100.00;153179.50;5044948;28;20480;-84
2023/12/12 07:49:46;;;;;;;2.90;1.50;;;;;;;7.09;100.00;153182.09;5038729;28;20455;-83
